Wisconsin Dells, WI

06:33 AM CDT on Julie 27, 2016 (GMT -0500)
Oxford, wi | | Change Station

Elev 1043 ft 43.75 °N, 89.70 °W | Updated 18 minutes ago

Scattered Clouds
Verspreide Wolke
64.8 °F
Feels Like 64.8 °F
N
0.0
Wind Veranderlik Wind from WNW
Gusts 0.0 mph

Vandag
High -- | Low -- °F
--% Chance of Precip.
Yesterday
High -- | Low -- °F
Precip. -- in
Druk 30.03 in
Sigbaarheid 10.0 myle
Wolke Verspreide Wolke 12000 ft
Dou-punt 63 °F
Humiditeit 97%
Rainfall 0.02 in
Snow Depth Not available.
5:43 AM 8:27 PM
Laaste kwarter, 44% visible
METAR KDLL 271110Z AUTO 00000KT 10SM SCT120 18/17 A3003 RMK AO2 T01820169
Druk 30.03 in
Sigbaarheid 10.0 myle
Wolke Verspreide Wolke 12000 ft
Dou-punt 63 °F
Humiditeit 97%
Rainfall 0.02 in
Snow Depth Not available.
5:43 AM 8:27 PM
Laaste kwarter, 44% visible
METAR KDLL 271110Z AUTO 00000KT 10SM SCT120 18/17 A3003 RMK AO2 T01820169

10-Day Weather Forecast

Almanac

Astronomy

Jul. 27, 2016 Rise Set
Ware Tyd
Civil Twilight
Nautical Twilight
Astronomical Twilight
Maan
Length Of Visible Light
Length of Day
Tomorrow will be .
, % of the Moon is Illuminated

Today's Extremes

State Highs State Lows

Community

WunderPhotos

Upload Photos

1,927,828 photos uploaded!

WunderBlog® & News

Nearby

Air Quality

  Air Quality AQ Index Pollutant
Not available.

Snow Depth

Station Depth Elevation

Earthquake Activity

Stad Distance Mag. Time & Date
Minimum magnitude displayed is 2.5.

Coastal Water Temperatures

Plek Temperatuur

Stations

Nearby Weather Stations

Station Location Temp Wind afkoel Dou-punt Humiditeit Wind Precip. Elev Opdateer Type
                   

Watches & Warnings

There are currently no watches in effect.